Time;durP1;ratioP1;P1;durP2;ratioP2;P2;SDS_P1;SDS_P2;PMS_P1;PMS_P2;Temp;Humidity;BMP_temperature;BMP_pressure;BME280_temperature;BME280_humidity;BME280_pressure;Samples;Min_cycle;Max_cycle;Signal;HPM_P1;HPM_P2
2021/01/25 00:02:11;;;;;;;6.70;5.77;;;;;;;-4.18;100.00;96473.16;5006904;28;20448;-72
2021/01/25 00:04:39;;;;;;;7.10;6.20;;;;;;;-4.24;100.00;96477.00;5005086;28;20454;-72
2021/01/25 00:07:07;;;;;;;6.27;5.70;;;;;;;-4.19;100.00;96466.31;5005841;28;20963;-72
2021/01/25 00:09:34;;;;;;;7.70;6.40;;;;;;;-4.31;100.00;96468.03;5008344;28;21054;-72
2021/01/25 00:12:01;;;;;;;6.67;5.80;;;;;;;-4.37;100.00;96464.94;5007156;28;20454;-73
2021/01/25 00:14:28;;;;;;;6.20;5.70;;;;;;;-4.38;100.00;96465.88;5006215;28;20495;-72
2021/01/25 00:16:55;;;;;;;8.07;6.03;;;;;;;-4.41;100.00;96455.75;5003860;28;20444;-72
2021/01/25 00:19:22;;;;;;;6.43;5.87;;;;;;;-4.43;100.00;96456.81;5001217;28;20470;-70
2021/01/25 00:21:49;;;;;;;7.33;6.73;;;;;;;-4.41;100.00;96466.09;5004655;28;20948;-72
2021/01/25 00:24:17;;;;;;;7.03;6.40;;;;;;;-4.44;100.00;96460.31;5005330;28;20474;-73
2021/01/25 00:26:44;;;;;;;6.47;5.87;;;;;;;-4.46;100.00;96462.19;5005239;28;20444;-71
2021/01/25 00:29:11;;;;;;;7.37;6.73;;;;;;;-4.37;100.00;96459.75;5008888;28;20454;-72
2021/01/25 00:31:38;;;;;;;7.00;6.40;;;;;;;-4.40;100.00;96454.81;5010539;28;20872;-71
2021/01/25 00:34:05;;;;;;;6.97;6.33;;;;;;;-4.33;100.00;96442.28;5005868;28;21607;-72
2021/01/25 00:36:32;;;;;;;6.43;5.93;;;;;;;-4.47;100.00;96447.59;5009373;28;20482;-71
2021/01/25 00:38:59;;;;;;;6.57;5.87;;;;;;;-4.35;100.00;96438.97;5004592;28;20557;-72
2021/01/25 00:41:28;;;;;;;7.20;6.50;;;;;;;-4.37;100.00;96449.41;5007412;28;21003;-72
2021/01/25 00:43:54;;;;;;;8.03;7.37;;;;;;;-4.39;100.00;96445.31;5003919;28;20472;-73
2021/01/25 00:46:21;;;;;;;7.27;6.57;;;;;;;-4.51;100.00;96446.97;5002989;28;20455;-72
2021/01/25 00:48:48;;;;;;;7.07;6.37;;;;;;;-4.59;100.00;96452.69;5003440;28;20606;-72
2021/01/25 00:51:15;;;;;;;7.33;6.63;;;;;;;-4.62;100.00;96447.72;5001203;28;20630;-71
2021/01/25 00:53:42;;;;;;;7.90;7.10;;;;;;;-4.68;100.00;96437.81;5002483;28;20468;-72
2021/01/25 00:56:11;;;;;;;7.90;7.10;;;;;;;-4.75;100.00;96449.53;5004151;28;20502;-71
2021/01/25 00:58:39;;;;;;;6.90;6.23;;;;;;;-4.65;100.00;96445.38;5006791;28;20454;-72
2021/01/25 01:01:06;;;;;;;6.43;5.93;;;;;;;-4.86;100.00;96448.53;5005364;28;20448;-72
2021/01/25 01:03:34;;;;;;;6.37;5.87;;;;;;;-4.70;100.00;96452.63;5002081;28;21003;-71
2021/01/25 01:06:01;;;;;;;7.53;6.83;;;;;;;-4.70;100.00;96453.47;5004579;28;20991;-72
2021/01/25 01:08:28;;;;;;;8.10;6.67;;;;;;;-4.66;100.00;96449.72;5004767;28;20448;-71
2021/01/25 01:10:55;;;;;;;6.80;6.10;;;;;;;-4.92;100.00;96450.69;5010491;28;20639;-71
2021/01/25 01:13:22;;;;;;;7.33;6.77;;;;;;;-4.98;100.00;96447.59;5005474;28;20826;-72
2021/01/25 01:15:50;;;;;;;8.33;5.90;;;;;;;-5.03;100.00;96444.53;5003443;28;20535;-72
2021/01/25 01:18:17;;;;;;;7.40;6.67;;;;;;;-5.08;100.00;96441.44;5001625;28;20948;-72
2021/01/25 01:20:44;;;;;;;7.13;6.43;;;;;;;-4.94;100.00;96440.44;5000028;28;20451;-72
2021/01/25 01:23:11;;;;;;;6.77;6.27;;;;;;;-4.74;100.00;96435.69;5004381;28;20460;-73
2021/01/25 01:25:38;;;;;;;6.30;5.80;;;;;;;-4.84;100.00;96431.16;5001496;28;20957;-73
2021/01/25 01:28:05;;;;;;;6.63;6.10;;;;;;;-5.01;100.00;96436.66;5001102;28;20510;-72
2021/01/25 01:30:32;;;;;;;6.40;5.90;;;;;;;-5.07;100.00;96430.16;5003993;28;20456;-72
2021/01/25 01:33:00;;;;;;;6.70;5.93;;;;;;;-5.06;100.00;96425.81;4999888;28;20591;-72
2021/01/25 01:35:27;;;;;;;5.90;5.40;;;;;;;-5.18;100.00;96420.56;5003023;28;21412;-72
2021/01/25 01:38:02;;;;;;;7.13;6.43;;;;;;;-5.19;100.00;96421.50;5001675;28;20471;-72
2021/01/25 01:40:29;;;;;;;7.43;6.50;;;;;;;-5.27;100.00;96414.25;5005251;28;20443;-73
2021/01/25 01:42:56;;;;;;;6.27;5.77;;;;;;;-5.35;100.00;96421.69;5003563;28;20919;-71
2021/01/25 01:45:23;;;;;;;5.77;5.37;;;;;;;-5.42;100.00;96410.13;5001228;28;20479;-71
2021/01/25 01:47:50;;;;;;;6.53;5.53;;;;;;;-5.48;100.00;96410.56;5003179;28;20832;-73
2021/01/25 01:50:19;;;;;;;6.07;5.57;;;;;;;-5.52;100.00;96415.09;5000727;28;20455;-71
2021/01/25 01:52:47;;;;;;;6.30;5.70;;;;;;;-5.54;100.00;96414.38;5002468;28;20479;-72
2021/01/25 01:55:14;;;;;;;5.63;5.23;;;;;;;-5.55;100.00;96416.09;5003877;28;21851;-72
2021/01/25 01:57:42;;;;;;;5.87;5.47;;;;;;;-5.70;100.00;96410.22;5003050;28;20453;-72
2021/01/25 02:00:10;;;;;;;6.07;5.63;;;;;;;-5.62;100.00;96411.47;5005021;28;20478;-72
2021/01/25 02:02:37;;;;;;;5.60;5.20;;;;;;;-5.74;100.00;96405.38;5007431;28;20496;-72
2021/01/25 02:05:05;;;;;;;6.23;5.73;;;;;;;-5.75;100.00;96408.88;5008426;28;20444;-72
2021/01/25 02:07:33;;;;;;;5.93;5.37;;;;;;;-5.84;100.00;96408.56;5006601;28;20451;-71
2021/01/25 02:10:00;;;;;;;7.10;6.47;;;;;;;-5.87;100.00;96406.19;4993055;28;20463;-72
2021/01/25 02:12:27;;;;;;;6.60;5.90;;;;;;;-5.98;100.00;96416.38;5001646;28;20442;-72
2021/01/25 02:14:55;;;;;;;7.00;6.40;;;;;;;-5.90;100.00;96411.53;5001824;28;20550;-72
2021/01/25 02:17:22;;;;;;;9.13;6.27;;;;;;;-5.98;100.00;96406.88;4999364;28;20445;-72
2021/01/25 02:19:52;;;;;;;9.30;6.07;;;;;;;-5.94;100.00;96394.59;5001807;28;20456;-72
2021/01/25 02:23:06;;;;;;;7.40;6.70;;;;;;;-5.77;100.00;96390.09;5002892;28;20435;-71
2021/01/25 02:25:38;;;;;;;6.77;6.10;;;;;;;-5.86;100.00;96399.25;5000202;28;20458;-71
2021/01/25 02:28:06;;;;;;;6.97;6.37;;;;;;;-5.71;100.00;96400.81;5001171;28;20482;-71
2021/01/25 02:30:34;;;;;;;9.87;5.80;;;;;;;-5.85;100.00;96406.91;5006714;28;20443;-71
2021/01/25 02:33:01;;;;;;;6.67;5.77;;;;;;;-5.94;100.00;96406.69;5004633;28;20478;-72
2021/01/25 02:35:29;;;;;;;6.53;6.03;;;;;;;-5.90;100.00;96414.09;5001293;28;20491;-72
2021/01/25 02:37:57;;;;;;;7.07;6.37;;;;;;;-5.78;100.00;96409.91;5006574;28;20436;-72
2021/01/25 02:40:25;;;;;;;6.47;5.87;;;;;;;-5.89;100.00;96412.38;5001637;28;20462;-72
2021/01/25 02:42:54;;;;;;;6.30;5.70;;;;;;;-5.94;100.00;96410.06;4998911;28;21008;-73
2021/01/25 02:45:22;;;;;;;6.90;6.20;;;;;;;-5.94;100.00;96404.09;5004642;28;20446;-72
2021/01/25 02:47:49;;;;;;;5.80;5.30;;;;;;;-6.08;100.00;96403.25;5002518;28;20486;-72
2021/01/25 02:50:16;;;;;;;5.60;5.03;;;;;;;-6.15;100.00;96397.69;5001099;28;20443;-73
2021/01/25 02:52:43;;;;;;;5.53;4.93;;;;;;;-5.95;100.00;96398.09;5004006;28;20828;-73
2021/01/25 02:55:11;;;;;;;6.07;5.57;;;;;;;-5.84;100.00;96395.66;4998502;28;20487;-72
2021/01/25 02:57:39;;;;;;;6.63;6.03;;;;;;;-5.88;100.00;96383.06;5007696;28;20477;-72
2021/01/25 03:00:07;;;;;;;6.30;5.80;;;;;;;-6.08;100.00;96386.97;5008158;28;20451;-73
2021/01/25 03:02:37;;;;;;;5.70;5.20;;;;;;;-6.24;100.00;96380.25;5006851;28;21057;-73
2021/01/25 03:05:04;;;;;;;5.33;4.93;;;;;;;-6.23;100.00;96384.47;5005894;28;20449;-71
2021/01/25 03:07:31;;;;;;;5.80;5.30;;;;;;;-6.30;100.00;96383.19;5005422;28;20459;-73
2021/01/25 03:10:02;;;;;;;5.30;4.90;;;;;;;-6.42;100.00;96380.50;5005918;28;20440;-71
2021/01/25 03:12:29;;;;;;;5.47;5.07;;;;;;;-6.48;100.00;96390.38;5003950;28;20468;-72
2021/01/25 03:14:56;;;;;;;5.83;5.33;;;;;;;-6.46;100.00;96389.34;5004300;28;20487;-72
2021/01/25 03:17:23;;;;;;;6.30;4.97;;;;;;;-6.30;100.00;96388.34;5001733;28;20794;-71
2021/01/25 03:19:51;;;;;;;5.60;5.20;;;;;;;-6.29;100.00;96385.69;5002461;28;20458;-72
2021/01/25 03:22:18;;;;;;;5.30;4.90;;;;;;;-6.17;100.00;96376.34;5002778;28;20455;-71
2021/01/25 03:24:45;;;;;;;5.40;4.90;;;;;;;-6.18;100.00;96382.44;5003910;28;21154;-72
2021/01/25 03:27:12;;;;;;;5.27;4.90;;;;;;;-6.23;100.00;96381.91;5008842;28;20458;-72
2021/01/25 03:29:39;;;;;;;5.57;5.07;;;;;;;-6.17;100.00;96383.25;5005836;28;20439;-72
2021/01/25 03:32:06;;;;;;;7.30;6.07;;;;;;;-6.26;100.00;96389.81;5009026;28;20463;-72
2021/01/25 03:34:33;;;;;;;6.53;5.97;;;;;;;-6.28;100.00;96378.78;5004425;28;21100;-72
2021/01/25 03:37:01;;;;;;;6.37;5.17;;;;;;;-6.34;100.00;96380.00;5007240;28;20834;-72
2021/01/25 03:39:28;;;;;;;5.90;5.40;;;;;;;-6.34;100.00;96382.59;5009942;28;21214;-73
2021/01/25 03:41:55;;;;;;;5.53;5.13;;;;;;;-6.34;100.00;96380.00;5007538;28;20459;-71
2021/01/25 03:44:22;;;;;;;6.20;5.70;;;;;;;-6.30;100.00;96383.19;5000668;28;20472;-71
2021/01/25 03:46:49;;;;;;;6.50;5.63;;;;;;;-6.11;100.00;96381.09;4994052;28;20979;-72
2021/01/25 03:49:16;;;;;;;5.30;4.93;;;;;;;-6.06;100.00;96383.38;4989007;28;20674;-72
2021/01/25 03:51:44;;;;;;;6.43;5.80;;;;;;;-6.22;100.00;96385.28;4997541;28;20455;-73
2021/01/25 03:54:12;;;;;;;6.27;5.77;;;;;;;-6.24;100.00;96388.00;5001400;28;20491;-73
2021/01/25 03:56:40;;;;;;;5.97;5.50;;;;;;;-6.23;100.00;96384.47;4998950;28;20460;-71
2021/01/25 03:59:07;;;;;;;5.73;5.27;;;;;;;-6.07;100.00;96391.22;4999651;28;20467;-73
2021/01/25 04:01:34;;;;;;;8.87;6.33;;;;;;;-5.99;100.00;96379.44;4999338;28;20456;-72
2021/01/25 04:04:01;;;;;;;6.33;5.83;;;;;;;-5.92;100.00;96379.03;5000719;28;20886;-72
2021/01/25 04:06:28;;;;;;;6.93;6.33;;;;;;;-5.85;100.00;96377.69;5002465;28;20526;-72
2021/01/25 04:08:55;;;;;;;5.60;5.13;;;;;;;-5.90;100.00;96375.41;5004363;28;20487;-74
2021/01/25 04:11:23;;;;;;;6.07;5.60;;;;;;;-5.65;100.00;96373.78;5003043;28;21282;-70
2021/01/25 04:13:50;;;;;;;6.33;5.83;;;;;;;-5.65;100.00;96373.78;5006669;28;20475;-73
2021/01/25 04:16:17;;;;;;;6.40;5.83;;;;;;;-5.70;100.00;96366.34;4997478;28;20488;-71
2021/01/25 04:18:44;;;;;;;6.00;5.60;;;;;;;-5.85;100.00;96364.78;5001329;28;20556;-71
2021/01/25 04:21:11;;;;;;;7.17;6.57;;;;;;;-5.85;100.00;96373.38;5004374;28;20443;-72
2021/01/25 04:23:38;;;;;;;5.97;5.47;;;;;;;-5.55;100.00;96379.16;5002632;28;20468;-70
2021/01/25 04:26:06;;;;;;;6.77;6.07;;;;;;;-5.56;100.00;96380.09;5002063;28;20444;-71
2021/01/25 04:28:33;;;;;;;6.67;6.07;;;;;;;-5.41;100.00;96375.66;5004663;28;20452;-72
2021/01/25 04:31:00;;;;;;;6.00;5.50;;;;;;;-5.39;100.00;96378.94;5002076;28;20462;-71
2021/01/25 04:33:27;;;;;;;5.23;4.80;;;;;;;-5.40;100.00;96378.09;5003394;28;20859;-72
2021/01/25 04:35:55;;;;;;;5.93;5.37;;;;;;;-5.32;100.00;96377.59;5005041;28;20490;-72
2021/01/25 04:38:22;;;;;;;6.03;5.57;;;;;;;-5.38;100.00;96381.41;5007340;28;20958;-72
2021/01/25 04:40:49;;;;;;;5.53;5.03;;;;;;;-5.33;100.00;96386.28;5005228;28;20448;-72
2021/01/25 04:43:16;;;;;;;6.13;5.63;;;;;;;-5.27;100.00;96382.44;5005141;28;20467;-72
2021/01/25 04:45:44;;;;;;;6.20;5.70;;;;;;;-5.16;100.00;96384.28;5005140;28;20447;-73
2021/01/25 04:48:11;;;;;;;5.53;5.03;;;;;;;-5.29;100.00;96389.47;5005326;28;20439;-72
2021/01/25 04:50:39;;;;;;;5.73;5.23;;;;;;;-5.21;100.00;96388.94;5004814;28;20444;-73
2021/01/25 04:53:06;;;;;;;6.17;5.77;;;;;;;-5.19;100.00;96392.22;4999727;28;20478;-72
2021/01/25 04:55:34;;;;;;;5.53;5.10;;;;;;;-5.09;100.00;96396.66;5003352;28;20490;-70
2021/01/25 04:58:02;;;;;;;6.10;5.57;;;;;;;-5.08;100.00;96394.94;5001169;28;20444;-73
2021/01/25 05:00:29;;;;;;;6.13;5.63;;;;;;;-5.00;100.00;96397.81;5005118;28;20460;-73
2021/01/25 05:02:57;;;;;;;6.57;6.00;;;;;;;-5.07;100.00;96399.16;5002775;28;20479;-72
2021/01/25 05:05:24;;;;;;;6.50;5.90;;;;;;;-5.06;100.00;96397.38;5005440;28;20440;-74
2021/01/25 05:07:51;;;;;;;7.00;6.30;;;;;;;-5.06;100.00;96397.38;5001177;28;20902;-71
2021/01/25 05:10:18;;;;;;;6.90;6.40;;;;;;;-5.05;100.00;96399.88;5007631;28;20471;-71
2021/01/25 05:12:46;;;;;;;7.87;5.33;;;;;;;-5.05;100.00;96402.47;5005939;28;20486;-72
2021/01/25 05:15:24;;;;;;;6.17;5.60;;;;;;;-4.92;100.00;96404.19;5006742;28;20472;-72
2021/01/25 05:17:51;;;;;;;6.47;5.87;;;;;;;-5.00;100.00;96410.72;5000083;28;20571;-73
2021/01/25 05:20:26;;;;;;;6.90;6.30;;;;;;;-4.98;100.00;96411.44;5004126;28;20448;-72
2021/01/25 05:22:54;;;;;;;6.43;5.87;;;;;;;-4.94;100.00;96404.28;5005754;28;20916;-71
2021/01/25 05:25:30;;;;;;;6.53;5.93;;;;;;;-4.86;100.00;96407.19;5006402;28;20439;-72
2021/01/25 05:27:57;;;;;;;6.27;5.67;;;;;;;-4.76;100.00;96398.78;4995487;28;20474;-71
2021/01/25 05:30:26;;;;;;;6.40;5.80;;;;;;;-4.66;100.00;96410.09;5008449;28;20482;-73
2021/01/25 05:32:55;;;;;;;7.00;6.00;;;;;;;-4.64;100.00;96410.81;5003906;28;20472;-72
2021/01/25 05:35:25;;;;;;;6.60;6.10;;;;;;;-4.44;100.00;96406.00;5007756;28;20556;-73
2021/01/25 05:37:54;;;;;;;7.07;6.20;;;;;;;-4.33;100.00;96407.84;4998239;28;20451;-65
2021/01/25 05:40:26;;;;;;;6.10;5.57;;;;;;;-4.30;100.00;96411.00;5008058;28;20443;-68
2021/01/25 05:42:53;;;;;;;6.07;5.57;;;;;;;-4.43;100.00;96413.66;5000984;28;20475;-66
2021/01/25 05:45:21;;;;;;;6.27;5.77;;;;;;;-4.52;100.00;96417.72;5007854;28;20454;-67
2021/01/25 05:47:51;;;;;;;5.47;5.07;;;;;;;-4.43;100.00;96416.22;5000305;28;20447;-67
2021/01/25 05:50:29;;;;;;;7.10;6.50;;;;;;;-4.33;100.00;96423.34;4998340;28;20500;-66
2021/01/25 05:52:58;;;;;;;7.00;6.40;;;;;;;-4.39;100.00;96420.25;4994722;28;20466;-67
2021/01/25 05:55:26;;;;;;;6.03;5.53;;;;;;;-4.43;100.00;96418.81;5002725;28;20487;-73
2021/01/25 05:57:53;;;;;;;6.17;5.63;;;;;;;-4.52;100.00;96428.06;5000096;28;20451;-72
2021/01/25 06:00:20;;;;;;;7.60;7.07;;;;;;;-4.46;100.00;96413.06;4998298;28;20548;-74
2021/01/25 06:02:49;;;;;;;6.50;5.90;;;;;;;-4.43;100.00;96418.81;4997137;28;20479;-72
2021/01/25 06:05:26;;;;;;;5.87;5.33;;;;;;;-4.55;100.00;96433.44;5001161;28;20447;-75
2021/01/25 06:07:53;;;;;;;7.53;6.80;;;;;;;-4.60;100.00;96422.59;4995874;28;20467;-74
2021/01/25 06:10:23;;;;;;;7.10;5.63;;;;;;;-4.44;100.00;96427.50;4998993;28;20940;-74
2021/01/25 06:13:04;;;;;;;7.23;6.63;;;;;;;-4.49;100.00;96421.03;4998392;28;20852;-73
2021/01/25 06:15:33;;;;;;;6.37;5.87;;;;;;;-4.45;100.00;96431.03;5001155;28;20476;-70
2021/01/25 06:18:00;;;;;;;6.90;6.30;;;;;;;-4.40;100.00;96431.53;5001613;28;20784;-72
2021/01/25 06:20:30;;;;;;;6.90;6.30;;;;;;;-4.41;100.00;96440.22;4997986;28;20897;-73
2021/01/25 06:22:58;;;;;;;7.03;6.43;;;;;;;-4.52;100.00;96433.25;5009707;28;20467;-73
2021/01/25 06:25:26;;;;;;;7.07;6.37;;;;;;;-4.58;100.00;96435.44;5001701;28;20447;-74
2021/01/25 06:27:56;;;;;;;6.67;5.90;;;;;;;-4.65;100.00;96437.63;4997805;28;20797;-73
2021/01/25 06:30:25;;;;;;;6.97;6.30;;;;;;;-4.65;100.00;96437.63;5005553;28;20443;-70
2021/01/25 06:32:54;;;;;;;8.13;7.43;;;;;;;-4.60;100.00;96434.72;5003331;28;20478;-72
2021/01/25 06:35:21;;;;;;;8.80;7.90;;;;;;;-4.62;100.00;96434.00;5007950;28;20486;-72
2021/01/25 06:37:54;;;;;;;8.43;7.60;;;;;;;-4.60;100.00;96432.94;4998541;28;20725;-74
2021/01/25 06:40:29;;;;;;;8.50;7.30;;;;;;;-4.37;100.00;96423.53;4998168;28;20463;-68
2021/01/25 06:42:56;;;;;;;9.90;8.07;;;;;;;-4.36;100.00;96421.81;4995437;28;20474;-69
2021/01/25 06:45:25;;;;;;;12.23;11.27;;;;;;;-4.25;100.00;96424.44;4995725;28;20444;-69
2021/01/25 06:47:52;;;;;;;17.03;15.73;;;;;;;-4.16;100.00;96422.16;4995998;28;20448;-69
2021/01/25 06:50:20;;;;;;;19.83;17.90;;;;;;;-4.07;100.00;96426.66;5002748;28;20526;-74
2021/01/25 06:52:50;;;;;;;12.13;11.23;;;;;;;-4.01;100.00;96428.78;5000964;28;20468;-72
2021/01/25 06:55:18;;;;;;;11.37;10.47;;;;;;;-3.92;100.00;96424.72;5000026;28;20491;-73
2021/01/25 06:57:47;;;;;;;8.70;7.90;;;;;;;-3.74;100.00;96432.03;5005876;28;20781;-71
2021/01/25 07:00:19;;;;;;;8.53;7.73;;;;;;;-3.72;100.00;96435.34;5004208;28;20932;-73
2021/01/25 07:02:53;;;;;;;8.10;7.30;;;;;;;-3.70;100.00;96434.31;5006030;28;20570;-72
2021/01/25 07:05:22;;;;;;;7.00;6.30;;;;;;;-3.75;100.00;96448.50;5001814;28;20215;-72
2021/01/25 07:07:49;;;;;;;6.93;6.33;;;;;;;-3.89;100.00;96449.53;4996260;28;20883;-73
2021/01/25 07:10:16;;;;;;;7.10;6.50;;;;;;;-3.71;100.00;96448.19;5005062;28;20452;-73
2021/01/25 07:12:44;;;;;;;6.67;6.17;;;;;;;-3.79;100.00;96451.34;5005384;28;20476;-71
2021/01/25 07:15:13;;;;;;;6.70;6.07;;;;;;;-3.89;100.00;96455.53;5005131;28;20510;-71
2021/01/25 07:17:40;;;;;;;7.70;7.00;;;;;;;-3.76;100.00;96460.66;5010456;28;20596;-72
2021/01/25 07:20:09;;;;;;;8.43;7.73;;;;;;;-3.77;100.00;96456.41;5001658;28;20447;-72
2021/01/25 07:22:37;;;;;;;10.53;8.77;;;;;;;-3.50;100.00;96455.28;5012095;28;20466;-72
2021/01/25 07:25:06;;;;;;;9.57;8.57;;;;;;;-3.58;100.00;96455.03;5005491;28;20459;-72
2021/01/25 07:27:34;;;;;;;9.60;7.70;;;;;;;-3.46;100.00;96463.66;5003638;28;20448;-72
2021/01/25 07:30:03;;;;;;;7.63;7.03;;;;;;;-3.45;100.00;96467.91;5008517;28;20452;-73
2021/01/25 07:32:30;;;;;;;9.13;8.33;;;;;;;-3.33;100.00;96472.16;5007798;28;20471;-71
2021/01/25 07:34:57;;;;;;;9.30;8.50;;;;;;;-3.22;100.00;96476.56;5006278;28;20455;-73
2021/01/25 07:37:24;;;;;;;8.83;7.70;;;;;;;-3.20;100.00;96479.84;5005989;28;20456;-72
2021/01/25 07:39:51;;;;;;;7.77;7.07;;;;;;;-3.24;100.00;96486.22;5007986;28;20939;-72
2021/01/25 07:42:18;;;;;;;8.20;7.50;;;;;;;-3.30;100.00;96484.88;5009900;28;21126;-72
2021/01/25 07:44:46;;;;;;;8.17;7.47;;;;;;;-3.33;100.00;96490.31;5005513;28;20614;-72
2021/01/25 07:47:14;;;;;;;8.37;7.43;;;;;;;-3.32;100.00;96486.78;5002852;28;20974;-71
2021/01/25 07:49:41;;;;;;;8.13;7.50;;;;;;;-3.26;100.00;96491.50;5009685;28;20526;-70
2021/01/25 07:52:16;;;;;;;9.47;8.53;;;;;;;-3.11;100.00;96492.09;5008843;28;20211;-72
2021/01/25 07:54:47;;;;;;;8.83;7.90;;;;;;;-2.98;100.00;96486.00;5004673;28;20510;-70
2021/01/25 07:57:22;;;;;;;10.67;9.57;;;;;;;-3.05;100.00;96483.88;5006908;28;20487;-73
2021/01/25 07:59:54;;;;;;;10.97;9.53;;;;;;;-3.21;100.00;96497.19;5003675;28;20542;-71
2021/01/25 08:02:26;;;;;;;10.23;9.20;;;;;;;-3.13;100.00;96499.19;5002317;28;20444;-71
2021/01/25 08:04:53;;;;;;;8.90;8.00;;;;;;;-3.16;100.00;96496.00;5002929;28;20601;-71
2021/01/25 08:07:20;;;;;;;9.97;9.00;;;;;;;-3.03;100.00;96501.06;5005247;28;20444;-72
2021/01/25 08:09:48;;;;;;;8.17;7.37;;;;;;;-3.00;100.00;96495.69;5002331;28;20720;-71
2021/01/25 08:12:20;;;;;;;9.33;8.40;;;;;;;-2.92;100.00;96501.91;5006875;28;20579;-71
2021/01/25 08:14:51;;;;;;;8.70;7.90;;;;;;;-3.01;100.00;96500.03;5005367;28;20448;-72
2021/01/25 08:17:22;;;;;;;8.67;7.90;;;;;;;-2.87;100.00;96500.72;5005032;28;20481;-72
2021/01/25 08:19:53;;;;;;;9.37;8.47;;;;;;;-2.96;100.00;96495.31;5001429;28;20464;-73
2021/01/25 08:22:24;;;;;;;12.47;8.90;;;;;;;-2.98;100.00;96496.38;5006875;28;20828;-71
2021/01/25 08:24:54;;;;;;;9.37;8.47;;;;;;;-2.88;100.00;96502.50;4999550;28;20446;-71
2021/01/25 08:27:22;;;;;;;9.73;8.47;;;;;;;-2.83;100.00;96502.97;5004527;28;20201;-71
2021/01/25 08:30:01;;;;;;;8.40;7.70;;;;;;;-2.62;100.00;96505.69;5002699;28;20475;-70
2021/01/25 08:32:33;;;;;;;9.17;8.27;;;;;;;-2.53;100.00;96500.75;5004227;28;20212;-73
2021/01/25 08:35:02;;;;;;;10.80;9.80;;;;;;;-2.72;100.00;96503.94;5001605;28;20817;-71
2021/01/25 08:37:31;;;;;;;11.07;8.50;;;;;;;-2.81;100.00;96508.06;5003041;28;20204;-71
2021/01/25 08:39:58;;;;;;;9.67;8.93;;;;;;;-2.75;100.00;96512.78;4999290;28;20462;-71
2021/01/25 08:42:32;;;;;;;11.23;8.67;;;;;;;-2.51;100.00;96506.63;4999500;28;20201;-72
2021/01/25 08:45:06;;;;;;;9.87;9.03;;;;;;;-2.44;100.00;96513.03;5001522;28;21042;-69
2021/01/25 08:47:34;;;;;;;9.07;8.17;;;;;;;-2.54;100.00;96519.84;5004988;28;20494;-72
2021/01/25 08:50:01;;;;;;;9.37;8.57;;;;;;;-2.39;100.00;96515.25;5002381;28;20552;-74
2021/01/25 08:52:30;;;;;;;9.13;8.33;;;;;;;-2.31;100.00;96519.84;5004852;28;20227;-72
2021/01/25 08:55:23;;;;;;;9.00;8.30;;;;;;;-2.38;100.00;96522.91;5005224;28;20211;-71
2021/01/25 08:57:50;;;;;;;8.03;7.23;;;;;;;-2.30;100.00;96522.28;5001976;28;20214;-72
2021/01/25 09:00:20;;;;;;;8.30;7.70;;;;;;;-2.50;100.00;96529.88;5005170;28;20447;-73
2021/01/25 09:02:47;;;;;;;8.03;7.37;;;;;;;-2.28;100.00;96532.56;5001896;28;20236;-71
2021/01/25 09:05:15;;;;;;;7.57;6.97;;;;;;;-2.24;100.00;96531.38;5002814;28;20465;-72
2021/01/25 09:07:42;;;;;;;8.70;7.73;;;;;;;-2.14;100.00;96534.09;5001874;28;20213;-71
2021/01/25 09:10:10;;;;;;;7.73;7.00;;;;;;;-2.08;100.00;96531.84;5002902;28;20221;-71
2021/01/25 09:12:37;;;;;;;7.63;6.83;;;;;;;-2.09;100.00;96540.56;5003376;28;20233;-71
2021/01/25 09:15:08;;;;;;;7.80;7.20;;;;;;;-1.95;100.00;96533.47;5003841;28;20205;-72
2021/01/25 09:17:37;;;;;;;7.50;6.80;;;;;;;-1.96;100.00;96537.00;5002079;28;20464;-72
2021/01/25 09:20:05;;;;;;;7.97;7.27;;;;;;;-1.86;100.00;96531.91;5003418;28;20725;-74
2021/01/25 09:22:33;;;;;;;9.90;6.60;;;;;;;-1.75;100.00;96543.06;5008628;28;20315;-74
2021/01/25 09:25:01;;;;;;;7.03;6.47;;;;;;;-1.73;100.00;96537.78;5003537;28;20684;-72
2021/01/25 09:27:28;;;;;;;6.37;5.77;;;;;;;-1.59;100.00;96539.25;5001565;28;20208;-71
2021/01/25 09:29:55;;;;;;;6.50;5.90;;;;;;;-1.67;100.00;96546.84;5003759;28;20213;-72
2021/01/25 09:32:22;;;;;;;10.07;8.20;;;;;;;-1.68;100.00;96550.41;5003372;28;20573;-72
2021/01/25 09:34:50;;;;;;;8.77;7.97;;;;;;;-1.73;100.00;96558.56;5004958;28;20304;-73
2021/01/25 09:37:17;;;;;;;7.70;7.00;;;;;;;-1.51;100.00;96557.66;5005623;28;20232;-74
2021/01/25 09:39:44;;;;;;;6.40;5.90;;;;;;;-1.43;100.00;96558.81;5005754;28;20205;-73
2021/01/25 09:42:11;;;;;;;6.63;6.03;;;;;;;-1.41;100.00;96567.28;5001298;28;20205;-73
2021/01/25 09:44:38;;;;;;;6.23;5.77;;;;;;;-1.37;98.99;96571.28;5004906;28;20652;-71
2021/01/25 09:47:06;;;;;;;5.97;5.57;;;;;;;-1.29;98.14;96565.47;5011339;28;20417;-72
2021/01/25 09:49:33;;;;;;;6.37;5.37;;;;;;;-1.48;98.96;96579.97;5004018;28;20197;-75
2021/01/25 09:52:01;;;;;;;5.73;5.33;;;;;;;-1.21;100.00;96579.50;5005334;28;20284;-72
2021/01/25 09:54:28;;;;;;;6.43;5.30;;;;;;;-1.21;100.00;96579.50;4999717;28;20232;-72
2021/01/25 09:56:55;;;;;;;6.20;5.67;;;;;;;-1.10;100.00;96581.25;5005351;28;20259;-71
2021/01/25 09:59:22;;;;;;;6.10;5.53;;;;;;;-1.08;96.77;96586.31;5000349;28;20580;-72
2021/01/25 10:01:49;;;;;;;6.07;5.40;;;;;;;-1.24;97.10;96595.38;5005799;28;20209;-72
2021/01/25 10:04:17;;;;;;;5.90;5.10;;;;;;;-1.25;98.02;96583.31;5003166;28;20220;-71
2021/01/25 10:06:44;;;;;;;5.30;4.80;;;;;;;-1.13;97.86;96591.06;5004107;28;20201;-74
2021/01/25 10:09:12;;;;;;;5.60;5.20;;;;;;;-1.06;98.40;96592.19;5000028;28;20456;-72
2021/01/25 10:11:39;;;;;;;6.87;5.60;;;;;;;-1.13;96.63;96596.25;5000930;28;20447;-72
2021/01/25 10:14:06;;;;;;;6.50;5.90;;;;;;;-1.06;97.13;96600.00;4997685;28;20475;-71
2021/01/25 10:16:33;;;;;;;5.67;5.27;;;;;;;-1.09;96.92;96595.88;5001201;28;20229;-71
2021/01/25 10:19:00;;;;;;;6.13;5.53;;;;;;;-1.23;97.70;96602.22;5004057;28;20283;-72
2021/01/25 10:21:27;;;;;;;5.97;5.47;;;;;;;-1.22;98.34;96606.47;5006191;28;20212;-73
2021/01/25 10:23:54;;;;;;;6.10;5.67;;;;;;;-1.04;98.48;96605.91;5008725;28;20225;-72
2021/01/25 10:26:22;;;;;;;5.57;5.10;;;;;;;-0.90;95.82;96608.22;5005204;28;20196;-72
2021/01/25 10:28:49;;;;;;;7.03;6.33;;;;;;;-0.81;96.32;96611.81;5002254;28;20209;-72
2021/01/25 10:31:17;;;;;;;6.17;5.60;;;;;;;-0.70;96.66;96610.13;5004611;28;20291;-75
2021/01/25 10:33:44;;;;;;;6.60;6.00;;;;;;;-0.65;95.31;96611.34;5003310;28;20610;-75
2021/01/25 10:36:11;;;;;;;6.77;6.27;;;;;;;-0.68;94.75;96616.81;5005880;28;20885;-74
2021/01/25 10:38:38;;;;;;;9.73;6.07;;;;;;;-0.72;94.35;96615.44;5010028;28;20208;-74
2021/01/25 10:41:06;;;;;;;6.07;5.60;;;;;;;-0.70;93.90;96620.53;5004197;28;20224;-70
2021/01/25 10:43:34;;;;;;;5.83;5.33;;;;;;;-0.70;93.90;96623.94;5004763;28;20257;-72
2021/01/25 10:46:01;;;;;;;5.83;5.43;;;;;;;-0.70;94.97;96623.13;5008511;28;20207;-72
2021/01/25 10:48:31;;;;;;;6.23;5.70;;;;;;;-0.61;95.12;96632.75;5006605;28;20232;-73
2021/01/25 10:50:58;;;;;;;6.30;5.80;;;;;;;-0.38;94.19;96623.03;5004907;28;20214;-73
2021/01/25 10:53:25;;;;;;;6.93;6.17;;;;;;;-0.35;94.68;96627.16;5004142;28;20626;-72
2021/01/25 10:55:52;;;;;;;6.47;5.87;;;;;;;-0.22;92.32;96632.97;5005597;28;20228;-73
2021/01/25 10:58:19;;;;;;;8.90;5.70;;;;;;;-0.22;91.99;96630.38;5003432;28;20209;-73
2021/01/25 11:00:47;;;;;;;7.10;5.90;;;;;;;-0.26;93.10;96628.97;5005379;28;20205;-72
2021/01/25 11:03:14;;;;;;;6.17;5.70;;;;;;;-0.29;91.55;96639.66;4999947;28;20224;-73
2021/01/25 11:05:41;;;;;;;6.70;6.10;;;;;;;-0.31;91.37;96631.16;5004330;28;20205;-72
2021/01/25 11:08:09;;;;;;;6.17;5.67;;;;;;;-0.17;90.89;96637.81;5001280;28;20236;-72
2021/01/25 11:10:36;;;;;;;6.70;6.10;;;;;;;-0.23;91.37;96633.94;5002115;28;20212;-72
2021/01/25 11:13:03;;;;;;;7.77;6.43;;;;;;;-0.42;93.06;96639.03;5002095;28;20232;-70
2021/01/25 11:15:31;;;;;;;11.13;9.87;;;;;;;-0.31;92.89;96639.78;5001056;28;20212;-72
2021/01/25 11:17:59;;;;;;;8.37;7.43;;;;;;;-0.31;94.06;96649.38;5000797;28;20228;-75
2021/01/25 11:20:27;;;;;;;6.53;5.87;;;;;;;-0.51;95.32;96632.81;5002318;28;20232;-72
2021/01/25 11:22:54;;;;;;;7.10;6.60;;;;;;;-0.45;96.15;96640.13;5006296;28;20724;-75
2021/01/25 11:25:21;;;;;;;6.53;6.03;;;;;;;-0.39;96.12;96643.97;5001506;28;20752;-73
2021/01/25 11:27:48;;;;;;;6.67;6.17;;;;;;;-0.45;96.34;96645.31;4997957;28;20705;-73
2021/01/25 11:30:16;;;;;;;6.67;6.17;;;;;;;-0.26;96.11;96648.97;5001556;28;20204;-71
2021/01/25 11:32:43;;;;;;;6.37;5.77;;;;;;;-0.42;96.31;96642.47;5001918;28;20617;-74